Time;durP1;ratioP1;P1;durP2;ratioP2;P2;SDS_P1;SDS_P2;PMS_P1;PMS_P2;Temp;Humidity;BMP_temperature;BMP_pressure;BME280_temperature;BME280_humidity;BME280_pressure;Samples;Min_cycle;Max_cycle;Signal;HPM_P1;HPM_P2
2021/12/03 00:00:34;;;;;;;12.73;8.60;;;7.50;58.40;;;;;;5048709;28;20468;-85
2021/12/03 00:03:01;;;;;;;13.63;7.60;;;7.60;58.40;;;;;;5039069;28;20449;-85
2021/12/03 00:05:29;;;;;;;20.90;11.37;;;7.50;58.40;;;;;;5045646;28;20990;-85
2021/12/03 00:07:56;;;;;;;19.53;9.87;;;7.70;58.60;;;;;;5056242;28;20982;-85
2021/12/03 00:10:25;;;;;;;13.40;8.20;;;7.80;58.30;;;;;;5041947;28;20449;-84
2021/12/03 00:12:53;;;;;;;19.20;8.57;;;7.80;58.30;;;;;;5044645;28;20452;-85
2021/12/03 00:15:21;;;;;;;17.33;9.00;;;7.80;58.20;;;;;;5047804;28;20487;-84
2021/12/03 00:17:48;;;;;;;15.43;8.20;;;7.90;58.10;;;;;;5062933;28;20452;-85
2021/12/03 00:20:15;;;;;;;15.80;8.10;;;7.80;58.00;;;;;;5029421;28;20466;-85
2021/12/03 00:22:45;;;;;;;14.30;8.40;;;7.90;58.30;;;;;;5026925;28;20864;-85
2021/12/03 00:25:12;;;;;;;15.33;8.27;;;7.70;57.70;;;;;;5028648;28;20476;-84
2021/12/03 00:27:40;;;;;;;15.73;8.20;;;7.70;58.00;;;;;;5018428;28;20531;-84
2021/12/03 00:30:10;;;;;;;13.73;8.00;;;7.30;57.60;;;;;;5047029;28;20828;-84
2021/12/03 00:32:37;;;;;;;13.90;7.40;;;7.30;58.30;;;;;;5046090;28;20462;-84
2021/12/03 00:35:05;;;;;;;11.53;6.87;;;7.30;58.30;;;;;;5045247;28;20522;-84
2021/12/03 00:37:32;;;;;;;12.87;6.97;;;7.30;57.80;;;;;;5048833;28;20454;-85
2021/12/03 00:40:01;;;;;;;11.67;6.67;;;7.30;57.90;;;;;;5049611;28;20475;-85
2021/12/03 00:42:29;;;;;;;12.80;6.37;;;7.30;57.80;;;;;;5045371;28;20445;-85
2021/12/03 00:44:56;;;;;;;13.67;7.37;;;7.40;58.00;;;;;;5045739;28;20481;-84
2021/12/03 00:47:24;;;;;;;12.00;6.33;;;7.50;57.90;;;;;;5046837;28;20493;-85
2021/12/03 00:49:51;;;;;;;10.80;6.20;;;7.30;57.90;;;;;;5031947;28;20466;-85
2021/12/03 00:52:19;;;;;;;13.07;7.47;;;7.20;58.70;;;;;;5045791;28;20493;-85
2021/12/03 00:54:46;;;;;;;11.17;6.03;;;7.30;58.60;;;;;;5062354;28;20480;-85
2021/12/03 00:57:14;;;;;;;15.87;7.60;;;7.30;58.70;;;;;;5046061;28;20448;-85
2021/12/03 00:59:41;;;;;;;15.80;7.23;;;7.60;58.80;;;;;;5064502;28;20459;-85
2021/12/03 01:02:08;;;;;;;11.57;7.60;;;7.70;58.80;;;;;;5045779;28;20449;-84
2021/12/03 01:04:35;;;;;;;12.73;7.40;;;7.80;58.60;;;;;;5025422;28;21064;-85
2021/12/03 01:07:02;;;;;;;15.73;6.13;;;7.80;57.40;;;;;;5038022;28;20461;-83
2021/12/03 01:09:31;;;;;;;9.60;5.97;;;7.70;57.70;;;;;;5013540;28;20504;-85
2021/12/03 01:11:58;;;;;;;9.63;5.30;;;7.70;57.10;;;;;;5028548;28;20454;-85
2021/12/03 01:14:26;;;;;;;6.80;5.57;;;7.70;57.70;;;;;;5046190;28;20455;-83
2021/12/03 01:16:53;;;;;;;14.17;7.47;;;7.80;57.60;;;;;;5026645;28;20480;-86
2021/12/03 01:19:21;;;;;;;13.80;7.90;;;7.80;57.10;;;;;;5048203;28;20452;-83
2021/12/03 01:21:47;;;;;;;14.33;6.83;;;7.80;56.90;;;;;;5060156;28;20456;-84
2021/12/03 01:24:14;;;;;;;13.57;6.43;;;7.80;56.90;;;;;;5053673;28;20461;-85
2021/12/03 01:26:43;;;;;;;12.80;7.03;;;7.70;56.90;;;;;;5045977;28;20484;-85
2021/12/03 01:29:10;;;;;;;17.30;7.67;;;7.70;56.80;;;;;;5034592;28;20461;-85
2021/12/03 01:31:39;;;;;;;11.87;6.87;;;7.50;57.00;;;;;;5034336;28;20459;-85
2021/12/03 01:34:05;;;;;;;9.27;6.50;;;7.40;57.20;;;;;;5049279;28;20464;-85
2021/12/03 01:36:32;;;;;;;10.73;6.97;;;7.50;57.50;;;;;;5048073;28;20488;-83
2021/12/03 01:38:59;;;;;;;12.13;7.60;;;7.70;57.60;;;;;;5051240;28;21233;-86
2021/12/03 01:41:27;;;;;;;14.17;7.40;;;7.70;57.60;;;;;;5049231;28;20452;-85
2021/12/03 01:43:59;;;;;;;11.07;6.10;;;7.80;57.30;;;;;;5070977;28;20521;-85
2021/12/03 01:46:27;;;;;;;16.17;7.90;;;7.80;57.30;;;;;;5035972;28;20508;-85
2021/12/03 01:48:55;;;;;;;25.23;13.07;;;7.70;57.20;;;;;;5033463;28;20447;-85
2021/12/03 01:51:23;;;;;;;10.60;7.00;;;7.70;57.50;;;;;;5032303;28;20452;-85
2021/12/03 01:53:50;;;;;;;12.23;7.10;;;7.70;57.10;;;;;;5053630;28;21042;-85
2021/12/03 01:56:20;;;;;;;12.03;6.73;;;7.70;57.00;;;;;;5037267;28;21168;-85
2021/12/03 01:58:48;;;;;;;13.17;7.13;;;7.70;56.90;;;;;;5064939;28;20452;-85
2021/12/03 02:01:17;;;;;;;11.40;6.77;;;7.70;56.70;;;;;;5032032;28;20455;-85
2021/12/03 02:03:46;;;;;;;11.10;5.90;;;7.80;56.60;;;;;;5069565;28;20452;-85
2021/12/03 02:06:16;;;;;;;8.03;5.77;;;7.70;56.30;;;;;;5066727;28;20465;-83
2021/12/03 02:08:43;;;;;;;8.80;6.07;;;7.40;55.60;;;;;;5051589;28;20453;-85
2021/12/03 02:11:12;;;;;;;8.50;5.83;;;7.40;56.20;;;;;;5050529;28;20460;-85
2021/12/03 02:13:39;;;;;;;10.97;5.83;;;7.40;56.30;;;;;;5033315;28;20842;-84
2021/12/03 02:16:06;;;;;;;8.70;4.83;;;7.40;55.60;;;;;;5047036;28;20481;-85
2021/12/03 02:18:34;;;;;;;9.67;6.23;;;7.50;55.00;;;;;;5046719;28;21171;-85
2021/12/03 02:21:05;;;;;;;8.57;5.07;;;7.30;55.00;;;;;;5048766;28;20454;-86
2021/12/03 02:23:32;;;;;;;10.90;6.37;;;7.20;55.40;;;;;;5029427;28;20457;-85
2021/12/03 02:26:00;;;;;;;10.90;6.87;;;7.30;55.40;;;;;;5068233;28;20472;-85
2021/12/03 02:28:32;;;;;;;11.57;5.43;;;7.40;55.30;;;;;;5048105;28;20877;-85
2021/12/03 02:30:59;;;;;;;6.57;4.53;;;7.40;55.00;;;;;;5048844;28;20459;-85
2021/12/03 02:33:26;;;;;;;7.57;4.37;;;7.40;54.80;;;;;;5050076;28;20987;-85
2021/12/03 02:35:54;;;;;;;8.33;5.60;;;7.40;54.60;;;;;;5049762;28;20830;-85
2021/12/03 02:38:26;;;;;;;7.70;4.90;;;7.40;54.50;;;;;;5025428;28;20457;-82
2021/12/03 02:40:54;;;;;;;7.67;4.53;;;7.50;54.10;;;;;;5029081;28;20452;-85
2021/12/03 02:43:22;;;;;;;7.50;4.60;;;7.50;54.10;;;;;;5047894;28;20476;-83
2021/12/03 02:45:51;;;;;;;8.60;5.07;;;7.50;53.90;;;;;;5037037;28;20709;-86
2021/12/03 02:48:19;;;;;;;7.27;4.23;;;7.40;54.40;;;;;;5023038;28;20456;-85
2021/12/03 02:50:46;;;;;;;7.30;4.50;;;7.40;53.70;;;;;;5033474;28;20471;-84
2021/12/03 02:53:14;;;;;;;7.43;4.60;;;7.20;53.70;;;;;;5047621;28;20437;-86
2021/12/03 02:55:42;;;;;;;5.40;4.10;;;7.30;53.80;;;;;;5056872;28;20486;-85
2021/12/03 02:58:12;;;;;;;6.97;4.63;;;7.30;53.80;;;;;;5063683;28;20556;-85
2021/12/03 03:00:40;;;;;;;9.30;4.90;;;7.30;53.70;;;;;;5048663;28;20456;-85
2021/12/03 03:03:07;;;;;;;9.10;5.10;;;7.20;53.90;;;;;;5066791;28;20457;-85
2021/12/03 03:05:34;;;;;;;8.40;5.00;;;7.00;54.30;;;;;;5010518;28;20484;-85
2021/12/03 03:08:02;;;;;;;5.50;4.60;;;6.90;54.90;;;;;;5012850;28;21018;-85
2021/12/03 03:10:31;;;;;;;8.27;5.80;;;7.00;55.40;;;;;;5048509;28;20547;-85
2021/12/03 03:13:01;;;;;;;9.90;5.83;;;7.10;55.20;;;;;;5053711;28;20444;-85
2021/12/03 03:15:29;;;;;;;8.83;5.30;;;7.20;55.30;;;;;;5065745;28;20480;-83
2021/12/03 03:17:56;;;;;;;8.20;5.13;;;7.20;55.10;;;;;;5050527;28;20964;-85
2021/12/03 03:20:23;;;;;;;9.20;5.13;;;7.30;55.30;;;;;;5063146;28;21316;-85
2021/12/03 03:22:51;;;;;;;8.57;4.77;;;7.30;55.10;;;;;;5033451;28;20543;-82
2021/12/03 03:25:20;;;;;;;11.43;5.10;;;7.20;55.50;;;;;;5049192;28;20488;-85
2021/12/03 03:27:47;;;;;;;10.77;5.97;;;7.00;55.90;;;;;;5039082;28;20450;-85
2021/12/03 03:30:18;;;;;;;11.90;6.50;;;7.00;55.80;;;;;;5045634;28;20548;-85
2021/12/03 03:32:45;;;;;;;9.67;5.47;;;7.00;56.20;;;;;;5046368;28;20526;-85
2021/12/03 03:35:12;;;;;;;9.67;5.80;;;7.10;56.50;;;;;;5047221;28;20533;-85
2021/12/03 03:37:40;;;;;;;10.80;6.30;;;7.10;56.30;;;;;;5038820;28;20479;-86
2021/12/03 03:40:10;;;;;;;10.00;6.90;;;7.20;56.60;;;;;;5049687;28;20528;-84
2021/12/03 03:42:37;;;;;;;7.50;5.60;;;7.30;56.40;;;;;;5063748;28;20551;-85
2021/12/03 03:45:09;;;;;;;9.43;5.97;;;7.30;56.40;;;;;;5031248;28;21053;-85
2021/12/03 03:47:37;;;;;;;11.93;7.80;;;7.30;56.40;;;;;;5052559;28;20464;-85
2021/12/03 03:50:06;;;;;;;11.87;7.00;;;7.40;56.20;;;;;;5047602;28;20987;-85
2021/12/03 03:52:35;;;;;;;11.17;6.20;;;7.40;56.50;;;;;;5041825;28;20465;-85
2021/12/03 03:55:03;;;;;;;12.40;7.10;;;7.40;56.30;;;;;;5043058;28;20468;-85
2021/12/03 03:57:30;;;;;;;9.57;6.10;;;7.40;56.40;;;;;;5053450;28;20468;-85
2021/12/03 03:59:57;;;;;;;8.83;6.10;;;7.50;56.30;;;;;;5047655;28;20455;-85
2021/12/03 04:02:24;;;;;;;14.90;10.70;;;7.40;56.30;;;;;;5047207;28;20481;-85
2021/12/03 04:04:52;;;;;;;18.57;11.77;;;7.20;56.50;;;;;;5059422;28;20477;-85
2021/12/03 04:07:19;;;;;;;13.90;6.97;;;7.10;56.40;;;;;;5066062;28;20456;-85
2021/12/03 04:09:46;;;;;;;15.90;8.43;;;7.10;56.60;;;;;;5049016;28;20721;-85
2021/12/03 04:12:13;;;;;;;11.00;6.10;;;7.00;56.50;;;;;;5032694;28;20460;-85
2021/12/03 04:14:40;;;;;;;13.73;9.20;;;7.00;56.50;;;;;;5037431;28;20464;-85
2021/12/03 04:17:07;;;;;;;11.60;6.40;;;7.10;56.30;;;;;;5045948;28;21165;-84
2021/12/03 04:19:35;;;;;;;17.57;9.00;;;7.10;55.90;;;;;;5038520;28;20448;-85
2021/12/03 04:22:05;;;;;;;15.57;8.80;;;7.10;56.00;;;;;;5045267;28;21031;-85
2021/12/03 04:24:32;;;;;;;27.53;13.57;;;7.20;56.20;;;;;;5045656;28;20970;-85
2021/12/03 04:26:59;;;;;;;26.60;13.93;;;7.20;56.00;;;;;;5047049;28;20459;-85
2021/12/03 04:29:26;;;;;;;39.40;18.27;;;7.30;56.60;;;;;;5058116;28;20465;-85
2021/12/03 04:31:53;;;;;;;37.37;20.67;;;7.20;55.60;;;;;;5062544;28;20464;-85
2021/12/03 04:34:19;;;;;;;9.97;6.97;;;7.00;56.00;;;;;;5045258;28;21117;-84
2021/12/03 04:36:46;;;;;;;10.77;6.90;;;6.70;55.70;;;;;;5029499;28;20492;-85
2021/12/03 04:39:15;;;;;;;12.03;7.63;;;6.60;56.00;;;;;;5046232;28;21354;-85
2021/12/03 04:41:42;;;;;;;11.97;7.60;;;6.70;56.30;;;;;;5009850;28;20449;-85
2021/12/03 04:44:09;;;;;;;8.97;5.17;;;6.70;56.10;;;;;;5031877;28;20448;-85
2021/12/03 04:46:36;;;;;;;7.77;4.73;;;6.60;56.10;;;;;;5047167;28;20460;-85
2021/12/03 04:49:04;;;;;;;7.90;5.00;;;6.60;56.40;;;;;;5067647;28;20460;-85
2021/12/03 04:51:30;;;;;;;6.70;4.80;;;6.60;56.10;;;;;;5050065;28;20473;-84
2021/12/03 04:53:57;;;;;;;12.63;5.20;;;6.70;56.50;;;;;;5034149;28;20440;-85
2021/12/03 04:56:26;;;;;;;11.77;5.30;;;6.70;55.80;;;;;;5034793;28;20480;-84
2021/12/03 04:58:53;;;;;;;7.43;4.57;;;6.70;55.50;;;;;;5036197;28;20476;-86
2021/12/03 05:01:20;;;;;;;5.63;3.77;;;6.70;54.50;;;;;;5051657;28;20452;-85
2021/12/03 05:03:47;;;;;;;9.53;4.80;;;6.70;55.00;;;;;;5062884;28;20467;-85
2021/12/03 05:06:17;;;;;;;9.00;5.07;;;6.60;54.60;;;;;;5028209;28;20990;-85
2021/12/03 05:08:44;;;;;;;9.80;5.90;;;6.70;54.80;;;;;;5067316;28;20452;-85
2021/12/03 05:11:11;;;;;;;8.93;6.77;;;6.70;54.50;;;;;;5050911;28;20491;-85
2021/12/03 05:13:39;;;;;;;14.00;9.27;;;6.80;54.60;;;;;;5057492;28;20464;-84
2021/12/03 05:16:07;;;;;;;14.73;8.63;;;6.90;54.80;;;;;;5069486;28;20459;-86
2021/12/03 05:18:34;;;;;;;15.70;7.67;;;6.80;54.30;;;;;;5066624;28;20456;-86
2021/12/03 05:21:03;;;;;;;8.50;5.57;;;6.90;54.60;;;;;;5051376;28;20452;-86
2021/12/03 05:23:32;;;;;;;7.27;4.27;;;7.00;54.70;;;;;;5047840;28;20452;-83
2021/12/03 05:26:00;;;;;;;7.43;4.17;;;7.10;54.50;;;;;;5050633;28;20465;-86
2021/12/03 05:28:28;;;;;;;8.30;4.70;;;7.10;54.30;;;;;;5053927;28;20444;-85
2021/12/03 05:30:56;;;;;;;8.87;5.10;;;6.90;53.60;;;;;;5054610;28;20452;-85
2021/12/03 05:33:23;;;;;;;6.53;4.33;;;6.80;53.80;;;;;;5066241;28;20453;-85
2021/12/03 05:35:50;;;;;;;9.30;5.70;;;6.80;54.10;;;;;;5018785;28;20460;-85
2021/12/03 05:38:17;;;;;;;10.67;7.43;;;6.60;53.50;;;;;;5032676;28;21066;-85
2021/12/03 05:40:44;;;;;;;11.97;6.23;;;6.60;53.90;;;;;;5063178;28;20464;-85
2021/12/03 05:43:11;;;;;;;7.20;4.90;;;6.80;54.10;;;;;;5064318;28;20838;-85
2021/12/03 05:45:39;;;;;;;9.37;6.10;;;6.80;53.90;;;;;;5033941;28;20476;-85
2021/12/03 05:48:07;;;;;;;7.30;6.60;;;6.70;53.90;;;;;;5016733;28;20462;-86
2021/12/03 05:50:35;;;;;;;9.53;6.03;;;6.60;53.80;;;;;;5069631;28;20456;-85
2021/12/03 05:53:02;;;;;;;12.03;6.00;;;6.70;54.20;;;;;;5052294;28;20463;-85
2021/12/03 05:55:29;;;;;;;6.87;5.23;;;6.70;53.70;;;;;;5064084;28;20996;-85
2021/12/03 05:57:56;;;;;;;6.13;4.33;;;6.60;53.90;;;;;;5039040;28;20469;-86
2021/12/03 06:00:28;;;;;;;7.87;5.40;;;6.60;53.40;;;;;;5051275;28;20440;-85
2021/12/03 06:02:57;;;;;;;11.27;5.37;;;6.40;53.40;;;;;;5031358;28;20464;-85
2021/12/03 06:05:27;;;;;;;9.83;5.37;;;6.20;53.80;;;;;;5066656;28;21011;-85
2021/12/03 06:07:54;;;;;;;7.73;4.70;;;6.00;54.10;;;;;;5064921;28;20935;-86
2021/12/03 06:10:22;;;;;;;12.20;6.20;;;6.00;54.00;;;;;;5042188;28;20459;-86
2021/12/03 06:12:49;;;;;;;10.33;5.27;;;6.10;54.70;;;;;;5036669;28;20463;-85
2021/12/03 06:15:17;;;;;;;11.93;6.37;;;6.10;54.20;;;;;;5045688;28;20491;-86
2021/12/03 06:17:44;;;;;;;8.50;5.00;;;5.90;54.20;;;;;;5049934;28;20469;-86
2021/12/03 06:20:12;;;;;;;9.50;5.57;;;5.80;55.00;;;;;;5052465;28;20463;-86
2021/12/03 06:22:41;;;;;;;11.30;8.23;;;5.70;54.90;;;;;;5055598;28;20452;-86
2021/12/03 06:25:10;;;;;;;8.10;5.63;;;5.70;54.80;;;;;;5067409;28;20477;-86
2021/12/03 06:27:38;;;;;;;8.03;5.97;;;5.70;54.60;;;;;;5047932;28;20447;-87
2021/12/03 06:30:07;;;;;;;7.23;6.53;;;5.70;54.70;;;;;;5053180;28;20473;-88
2021/12/03 06:32:34;;;;;;;11.80;5.77;;;5.70;54.60;;;;;;5040218;28;20551;-88
2021/12/03 06:35:01;;;;;;;13.37;6.63;;;5.70;54.60;;;;;;5045920;28;20476;-86
2021/12/03 06:37:28;;;;;;;13.97;6.30;;;5.80;54.70;;;;;;5048559;28;20484;-88
2021/12/03 06:39:57;;;;;;;10.07;6.03;;;5.70;55.00;;;;;;5026343;28;20539;-87
2021/12/03 06:42:24;;;;;;;11.53;6.57;;;5.70;54.40;;;;;;5040405;28;20531;-88
2021/12/03 06:44:51;;;;;;;17.47;8.30;;;5.80;54.80;;;;;;5065073;28;21018;-87
2021/12/03 06:47:18;;;;;;;9.03;6.83;;;5.80;54.40;;;;;;5060912;28;20467;-86
2021/12/03 06:49:45;;;;;;;8.80;5.97;;;5.80;54.40;;;;;;5065509;28;20470;-89
2021/12/03 06:52:15;;;;;;;12.73;5.40;;;5.80;54.60;;;;;;5062764;28;21326;-87
2021/12/03 06:54:42;;;;;;;6.23;4.80;;;5.70;54.60;;;;;;5050317;28;20938;-87
2021/12/03 06:57:10;;;;;;;9.73;6.40;;;5.60;54.70;;;;;;5065934;28;20499;-87
2021/12/03 06:59:38;;;;;;;9.73;5.03;;;5.60;54.80;;;;;;5047678;28;20456;-87
2021/12/03 07:02:05;;;;;;;9.17;4.90;;;5.60;54.70;;;;;;5036893;28;20449;-86
2021/12/03 07:04:32;;;;;;;8.20;5.93;;;5.40;54.70;;;;;;5044286;28;20471;-86
2021/12/03 07:06:59;;;;;;;7.67;4.70;;;5.50;54.90;;;;;;5046187;28;20447;-87
2021/12/03 07:09:26;;;;;;;7.80;4.73;;;5.60;54.60;;;;;;5043132;28;20457;-87
2021/12/03 07:11:53;;;;;;;6.07;5.47;;;5.50;54.90;;;;;;5048851;28;20449;-87
2021/12/03 07:14:21;;;;;;;7.07;5.60;;;5.50;54.70;;;;;;5027736;28;20471;-88
2021/12/03 07:16:48;;;;;;;10.57;5.63;;;5.30;54.60;;;;;;5025638;28;20476;-86
2021/12/03 07:19:15;;;;;;;6.57;4.90;;;5.40;55.00;;;;;;5038752;28;20477;-87
2021/12/03 07:21:42;;;;;;;10.87;6.80;;;5.40;54.80;;;;;;5049868;28;20457;-87
2021/12/03 07:24:09;;;;;;;8.20;5.30;;;5.30;54.60;;;;;;5043427;28;20492;-88
2021/12/03 07:26:36;;;;;;;8.97;5.30;;;5.30;54.60;;;;;;5047278;28;20875;-88
2021/12/03 07:29:04;;;;;;;9.37;5.77;;;5.20;55.00;;;;;;5015050;28;20445;-88
2021/12/03 07:31:33;;;;;;;7.70;5.47;;;5.30;55.20;;;;;;5048869;28;20530;-86
2021/12/03 07:34:00;;;;;;;25.00;10.20;;;5.20;55.00;;;;;;5060694;28;20448;-88
2021/12/03 07:36:27;;;;;;;23.03;7.63;;;5.10;55.10;;;;;;5051879;28;20468;-87
2021/12/03 07:38:54;;;;;;;16.33;8.30;;;5.30;55.30;;;;;;5077419;28;20472;-87
2021/12/03 07:41:21;;;;;;;10.43;5.43;;;5.50;55.10;;;;;;5033015;28;20452;-86
2021/12/03 07:43:48;;;;;;;15.57;9.47;;;5.60;54.50;;;;;;5067226;28;20480;-87
2021/12/03 07:46:16;;;;;;;18.60;9.57;;;5.60;54.30;;;;;;5046265;28;21096;-87
2021/12/03 07:48:46;;;;;;;16.30;9.20;;;5.40;54.20;;;;;;5039221;28;20485;-87
2021/12/03 07:51:14;;;;;;;19.17;8.80;;;5.60;54.30;;;;;;5018222;28;20441;-87
2021/12/03 07:53:41;;;;;;;13.40;7.50;;;5.70;54.30;;;;;;5062835;28;20485;-85
2021/12/03 07:56:09;;;;;;;8.40;4.80;;;5.80;54.10;;;;;;5059087;28;20825;-88
2021/12/03 07:58:37;;;;;;;8.67;5.10;;;5.80;54.00;;;;;;5032436;28;20558;-87
2021/12/03 08:01:04;;;;;;;19.10;10.10;;;5.90;54.00;;;;;;5042046;28;20891;-85
2021/12/03 08:03:32;;;;;;;12.63;6.50;;;5.90;53.60;;;;;;5019716;28;20547;-87
2021/12/03 08:06:06;;;;;;;10.50;6.03;;;5.80;54.20;;;;;;5067620;28;20477;-88
2021/12/03 08:08:33;;;;;;;11.60;6.07;;;5.70;53.90;;;;;;5034154;28;20471;-87
2021/12/03 08:11:01;;;;;;;11.67;5.13;;;5.50;54.90;;;;;;5036675;28;20574;-87
2021/12/03 08:13:28;;;;;;;7.97;5.30;;;5.50;54.60;;;;;;5049200;28;21073;-88
2021/12/03 08:15:55;;;;;;;8.70;5.20;;;5.60;54.80;;;;;;5054357;28;20468;-87
2021/12/03 08:18:22;;;;;;;9.47;5.87;;;5.60;54.80;;;;;;5038365;28;20507;-88
2021/12/03 08:20:49;;;;;;;14.20;6.97;;;5.50;55.00;;;;;;5051053;28;20459;-88
2021/12/03 08:23:17;;;;;;;9.27;5.90;;;5.50;55.10;;;;;;5053816;28;20464;-88
2021/12/03 08:25:44;;;;;;;8.93;5.87;;;5.60;55.00;;;;;;5052782;28;20548;-88
2021/12/03 08:28:12;;;;;;;10.50;6.37;;;5.70;54.90;;;;;;5048468;28;20434;-88
2021/12/03 08:30:39;;;;;;;13.20;5.60;;;5.80;54.80;;;;;;5048445;28;20464;-87
2021/12/03 08:33:06;;;;;;;8.90;5.43;;;5.80;54.20;;;;;;5034949;28;20453;-88
2021/12/03 08:35:34;;;;;;;9.50;5.80;;;5.80;54.30;;;;;;5047799;28;20562;-87
2021/12/03 08:38:01;;;;;;;7.87;5.40;;;5.50;55.00;;;;;;5033642;28;20452;-88
2021/12/03 08:40:29;;;;;;;9.77;5.63;;;5.60;55.10;;;;;;5046966;28;20480;-86
2021/12/03 08:42:57;;;;;;;9.00;6.33;;;5.60;54.90;;;;;;5048789;28;20998;-87
2021/12/03 08:45:25;;;;;;;11.50;7.83;;;5.40;55.00;;;;;;5071734;28;20467;-86
2021/12/03 08:47:55;;;;;;;9.57;6.37;;;5.50;55.20;;;;;;5016657;28;20779;-88
2021/12/03 08:50:29;;;;;;;15.93;7.60;;;5.70;55.40;;;;;;5052657;28;20448;-86
2021/12/03 08:55:46;;;;;;;15.33;7.87;;;5.70;55.20;;;;;;5064006;28;20553;-86
2021/12/03 08:58:16;;;;;;;18.00;7.93;;;5.50;55.20;;;;;;5036058;28;20454;-88
2021/12/03 09:00:44;;;;;;;20.63;11.17;;;5.40;56.00;;;;;;5014158;28;20451;-87
2021/12/03 09:03:11;;;;;;;15.60;8.10;;;5.30;56.20;;;;;;5070257;28;20539;-88
2021/12/03 09:05:39;;;;;;;10.13;7.07;;;5.40;56.30;;;;;;5030216;28;20975;-88
2021/12/03 09:08:06;;;;;;;10.30;6.97;;;5.50;56.10;;;;;;5050502;28;20456;-88
2021/12/03 09:10:33;;;;;;;12.50;7.80;;;5.50;55.60;;;;;;5068694;28;20505;-86
2021/12/03 09:13:01;;;;;;;14.40;7.83;;;5.40;56.10;;;;;;5071520;28;21181;-87
2021/12/03 09:15:36;;;;;;;7.87;5.70;;;5.30;55.70;;;;;;5034066;28;21317;-87
2021/12/03 09:18:16;;;;;;;12.07;6.37;;;5.30;56.30;;;;;;5067579;28;21002;-88
2021/12/03 09:20:50;;;;;;;13.90;7.77;;;5.30;56.10;;;;;;5051996;28;20452;-87
2021/12/03 09:23:22;;;;;;;13.53;7.17;;;5.50;56.30;;;;;;5037282;28;20901;-89
2021/12/03 09:25:53;;;;;;;14.07;7.03;;;5.50;55.90;;;;;;5031459;28;21043;-88
2021/12/03 09:28:26;;;;;;;11.30;7.07;;;5.70;56.10;;;;;;5046611;28;20536;-85
2021/12/03 09:30:53;;;;;;;12.10;6.90;;;5.60;55.70;;;;;;5033248;28;20490;-88
2021/12/03 09:33:23;;;;;;;9.50;6.03;;;5.50;56.10;;;;;;5027136;28;20455;-87
2021/12/03 09:35:54;;;;;;;12.50;6.23;;;5.60;56.40;;;;;;5035572;28;20466;-88
2021/12/03 09:38:22;;;;;;;9.47;5.13;;;5.60;56.10;;;;;;5051678;28;20552;-88
2021/12/03 09:40:49;;;;;;;8.70;5.80;;;5.40;56.00;;;;;;5033850;28;20450;-88
2021/12/03 09:43:16;;;;;;;8.87;5.20;;;5.50;56.50;;;;;;5067167;28;20540;-89
2021/12/03 09:45:54;;;;;;;12.53;4.97;;;5.60;56.80;;;;;;5053037;28;20504;-88
2021/12/03 09:48:30;;;;;;;11.03;6.00;;;5.30;56.30;;;;;;5033169;28;20475;-86
2021/12/03 09:50:57;;;;;;;6.13;5.10;;;5.40;56.90;;;;;;5051079;28;20461;-85
2021/12/03 09:53:42;;;;;;;8.57;5.60;;;5.30;56.70;;;;;;5050058;28;20447;-87
2021/12/03 09:56:11;;;;;;;10.50;6.83;;;5.40;57.10;;;;;;5038603;28;20475;-86
2021/12/03 09:59:06;;;;;;;8.60;5.17;;;5.30;57.40;;;;;;5068150;28;20468;-87
2021/12/03 10:01:38;;;;;;;8.43;5.43;;;5.40;57.40;;;;;;5059287;28;20449;-87
2021/12/03 10:04:25;;;;;;;6.43;4.43;;;5.60;56.90;;;;;;5018221;28;20959;-86
2021/12/03 10:15:10;;;;;;;8.67;6.97;;;5.60;56.30;;;;;;5052019;28;20476;-88
2021/12/03 10:17:45;;;;;;;7.73;4.90;;;5.50;56.50;;;;;;5028754;28;21011;-87
2021/12/03 10:23:35;;;;;;;8.67;5.90;;;5.80;56.50;;;;;;5029381;28;20964;-88
2021/12/03 10:26:39;;;;;;;7.07;4.43;;;5.90;56.00;;;;;;5014478;28;20483;-87
2021/12/03 10:29:14;;;;;;;7.90;5.00;;;6.00;55.90;;;;;;5042514;28;20456;-88
2021/12/03 10:35:06;;;;;;;10.27;5.20;;;6.00;55.60;;;;;;5031701;28;20522;-87
2021/12/03 10:40:46;;;;;;;9.70;5.23;;;6.00;55.70;;;;;;5037805;28;20538;-88
2021/12/03 10:43:32;;;;;;;11.60;4.70;;;5.80;55.80;;;;;;5046737;28;20466;-88
2021/12/03 10:46:12;;;;;;;7.27;5.00;;;5.90;56.50;;;;;;5051978;28;20471;-87
2021/12/03 10:48:48;;;;;;;4.77;3.73;;;6.00;55.80;;;;;;5045604;28;20451;-88
2021/12/03 10:51:43;;;;;;;6.73;4.50;;;5.90;55.60;;;;;;5014410;28;20556;-88
2021/12/03 10:54:18;;;;;;;7.60;4.63;;;6.10;55.40;;;;;;5051529;28;20449;-88
2021/12/03 10:57:02;;;;;;;9.40;4.93;;;6.10;55.20;;;;;;5051055;28;20477;-88
2021/12/03 10:59:52;;;;;;;8.40;4.10;;;6.20;55.10;;;;;;5025036;28;20465;-89
2021/12/03 11:11:19;;;;;;;10.97;6.70;;;6.60;54.70;;;;;;5041524;28;20468;-88
2021/12/03 11:31:08;;;;;;;6.63;3.90;;;6.30;54.90;;;;;;5056452;28;20451;-85
2021/12/03 12:35:52;;;;;;;6.20;4.50;;;7.00;53.20;;;;;;5043897;28;20465;-87
2021/12/03 13:18:37;;;;;;;5.93;4.00;;;6.70;54.20;;;;;;5005581;28;20454;-86
2021/12/03 14:07:03;;;;;;;3.23;2.53;;;7.50;52.90;;;;;;5082397;28;20619;-85
2021/12/03 14:40:37;;;;;;;5.37;3.73;;;7.00;53.60;;;;;;5030838;28;20572;-85
2021/12/03 14:57:12;;;;;;;12.73;4.70;;;7.30;53.60;;;;;;5074750;28;20554;-85
2021/12/03 14:59:50;;;;;;;9.57;5.10;;;7.30;53.70;;;;;;5077000;28;21210;-85
2021/12/03 15:02:29;;;;;;;9.93;5.40;;;7.00;52.90;;;;;;5060976;28;20550;-85
2021/12/03 15:05:05;;;;;;;10.73;4.47;;;6.80;54.30;;;;;;5062052;28;20466;-86
2021/12/03 15:07:38;;;;;;;7.00;4.87;;;6.90;54.50;;;;;;5081796;28;20490;-86
2021/12/03 15:10:13;;;;;;;9.07;4.33;;;6.80;54.00;;;;;;5059781;28;20460;-86
2021/12/03 15:13:04;;;;;;;10.50;4.90;;;6.80;54.30;;;;;;5053707;28;21098;-86
2021/12/03 15:29:51;;;;;;;6.30;3.57;;;6.40;54.70;;;;;;5029235;28;20986;-89
2021/12/03 15:32:29;;;;;;;6.67;5.07;;;6.40;55.30;;;;;;5032456;28;20472;-90
2021/12/03 15:35:03;;;;;;;5.30;3.47;;;6.60;57.20;;;;;;5051628;28;20444;-88
2021/12/03 15:37:46;;;;;;;5.13;4.63;;;6.60;55.00;;;;;;5051383;28;20444;-88
2021/12/03 16:05:12;;;;;;;13.10;8.30;;;6.80;53.50;;;;;;5064724;28;20529;-85
2021/12/03 16:08:01;;;;;;;10.03;7.17;;;6.80;53.60;;;;;;5066473;28;21019;-86
2021/12/03 16:10:32;;;;;;;6.40;4.50;;;7.00;53.50;;;;;;5064622;28;20464;-86
2021/12/03 16:13:14;;;;;;;5.53;4.67;;;6.80;53.20;;;;;;5036616;28;20462;-86
2021/12/03 16:43:58;;;;;;;20.43;8.43;;;6.70;53.00;;;;;;5103252;28;20454;-86
2021/12/03 16:46:44;;;;;;;13.47;7.27;;;6.80;53.20;;;;;;5117229;27;20464;-86
2021/12/03 16:51:56;;;;;;;19.57;8.57;;;6.80;52.80;;;;;;5083047;28;20443;-86
2021/12/03 16:54:27;;;;;;;13.37;7.40;;;6.90;52.70;;;;;;5100829;28;20443;-86
2021/12/03 16:56:56;;;;;;;12.00;6.70;;;6.90;52.80;;;;;;5083533;28;20939;-86
2021/12/03 16:59:24;;;;;;;9.40;5.60;;;6.90;52.70;;;;;;5088067;28;20542;-86
2021/12/03 17:02:02;;;;;;;11.87;6.37;;;6.80;52.60;;;;;;5103758;28;20537;-86
2021/12/03 17:04:42;;;;;;;16.83;9.87;;;6.80;52.70;;;;;;5097689;28;20823;-86
2021/12/03 17:07:44;;;;;;;14.80;9.73;;;6.80;52.80;;;;;;5081860;28;20463;-86
2021/12/03 17:13:10;;;;;;;9.23;6.30;;;6.90;52.90;;;;;;5103840;28;20439;-86
2021/12/03 17:16:13;;;;;;;10.90;6.57;;;7.00;53.00;;;;;;5099205;28;20840;-86
2021/12/03 17:30:11;;;;;;;9.00;6.30;;;6.50;52.90;;;;;;5078517;28;20975;-86
2021/12/03 17:49:28;;;;;;;10.13;5.10;;;6.80;52.90;;;;;;5049008;28;20506;-86
2021/12/03 17:52:09;;;;;;;6.50;4.20;;;6.70;52.70;;;;;;5075637;28;20462;-86
2021/12/03 17:54:45;;;;;;;5.00;4.00;;;6.60;52.70;;;;;;5072736;28;20986;-86
2021/12/03 17:57:23;;;;;;;7.77;5.13;;;6.60;52.20;;;;;;5074096;28;20459;-87
2021/12/03 17:59:51;;;;;;;4.77;3.40;;;6.70;52.30;;;;;;5076211;28;20491;-86
2021/12/03 18:02:26;;;;;;;7.33;5.07;;;6.90;52.30;;;;;;5077509;28;21182;-86
2021/12/03 18:05:07;;;;;;;5.50;3.50;;;6.80;51.70;;;;;;5048086;28;20455;-86
2021/12/03 18:07:44;;;;;;;9.90;4.60;;;6.80;52.00;;;;;;5077477;28;20529;-86
2021/12/03 18:13:24;;;;;;;6.80;4.00;;;6.90;52.40;;;;;;5056219;28;20591;-85
2021/12/03 18:43:47;;;;;;;5.07;3.10;;;6.50;52.40;;;;;;5050992;28;20469;-86
2021/12/03 18:46:45;;;;;;;7.00;4.00;;;6.70;53.30;;;;;;5056062;28;20472;-86
2021/12/03 18:52:17;;;;;;;10.70;6.30;;;6.90;52.60;;;;;;5077745;28;20450;-87
2021/12/03 18:54:49;;;;;;;5.70;4.40;;;6.80;52.80;;;;;;5047873;28;20457;-85
2021/12/03 18:57:19;;;;;;;10.13;7.10;;;7.00;52.80;;;;;;5058198;28;20441;-85
2021/12/03 18:59:53;;;;;;;8.27;5.20;;;7.20;52.40;;;;;;5049484;28;20560;-86
2021/12/03 19:02:23;;;;;;;8.00;4.67;;;7.30;52.30;;;;;;5060256;28;20448;-85
2021/12/03 19:04:55;;;;;;;5.03;3.77;;;7.30;52.20;;;;;;5052421;28;20468;-86
2021/12/03 19:07:25;;;;;;;5.27;3.53;;;7.30;51.70;;;;;;5057496;28;20486;-85
2021/12/03 19:09:55;;;;;;;6.27;5.10;;;7.20;51.80;;;;;;5062820;28;20456;-86
2021/12/03 19:12:25;;;;;;;8.20;4.20;;;7.30;52.30;;;;;;5044716;28;20812;-86
2021/12/03 19:14:55;;;;;;;4.67;3.63;;;7.40;52.40;;;;;;5050759;28;20523;-86
2021/12/03 19:17:24;;;;;;;4.37;3.43;;;7.30;52.00;;;;;;5064470;28;20481;-86
2021/12/03 19:19:55;;;;;;;2.87;2.53;;;7.20;51.40;;;;;;5056639;28;20556;-86